sensor_id;sensor_type;location;lat;lon;timestamp;temperature;humidity
63202;DHT22;49296;48.188;11.566;2022-11-15T00:00:55;8.68;71.78
63202;DHT22;49296;48.188;11.566;2022-11-15T00:03:25;8.67;71.62
63202;DHT22;49296;48.188;11.566;2022-11-15T00:05:52;8.61;71.59
63202;DHT22;49296;48.188;11.566;2022-11-15T00:08:24;8.48;71.60
63202;DHT22;49296;48.188;11.566;2022-11-15T00:10:55;8.44;71.70
63202;DHT22;49296;48.188;11.566;2022-11-15T00:13:22;8.48;71.65
63202;DHT22;49296;48.188;11.566;2022-11-15T00:15:48;8.52;71.53
63202;DHT22;49296;48.188;11.566;2022-11-15T00:18:15;8.55;71.31
63202;DHT22;49296;48.188;11.566;2022-11-15T00:20:44;8.55;71.34
63202;DHT22;49296;48.188;11.566;2022-11-15T00:23:14;8.52;71.46
63202;DHT22;49296;48.188;11.566;2022-11-15T00:25:44;8.42;71.69
63202;DHT22;49296;48.188;11.566;2022-11-15T00:28:15;8.36;71.76
63202;DHT22;49296;48.188;11.566;2022-11-15T00:30:43;8.34;71.78
63202;DHT22;49296;48.188;11.566;2022-11-15T00:33:10;8.36;71.76
63202;DHT22;49296;48.188;11.566;2022-11-15T00:35:37;8.31;71.83
63202;DHT22;49296;48.188;11.566;2022-11-15T00:38:09;8.29;71.81
63202;DHT22;49296;48.188;11.566;2022-11-15T00:40:35;8.30;71.66
63202;DHT22;49296;48.188;11.566;2022-11-15T00:43:05;8.27;71.53
63202;DHT22;49296;48.188;11.566;2022-11-15T00:45:35;8.31;71.43
63202;DHT22;49296;48.188;11.566;2022-11-15T00:48:05;8.30;71.02
63202;DHT22;49296;48.188;11.566;2022-11-15T00:50:34;8.33;70.87
63202;DHT22;49296;48.188;11.566;2022-11-15T00:53:01;8.31;70.95
63202;DHT22;49296;48.188;11.566;2022-11-15T00:55:27;8.33;70.80
63202;DHT22;49296;48.188;11.566;2022-11-15T00:57:53;8.31;70.70
63202;DHT22;49296;48.188;11.566;2022-11-15T01:00:22;8.31;70.68
63202;DHT22;49296;48.188;11.566;2022-11-15T01:02:52;8.17;71.03
63202;DHT22;49296;48.188;11.566;2022-11-15T01:05:19;8.14;70.93
63202;DHT22;49296;48.188;11.566;2022-11-15T01:07:45;8.10;71.03
63202;DHT22;49296;48.188;11.566;2022-11-15T01:10:12;8.06;71.18
63202;DHT22;49296;48.188;11.566;2022-11-15T01:12:38;8.03;71.22
63202;DHT22;49296;48.188;11.566;2022-11-15T01:15:05;7.96;71.52
63202;DHT22;49296;48.188;11.566;2022-11-15T01:17:32;7.97;71.44
63202;DHT22;49296;48.188;11.566;2022-11-15T01:19:59;7.92;71.51
63202;DHT22;49296;48.188;11.566;2022-11-15T01:22:26;7.85;71.49
63202;DHT22;49296;48.188;11.566;2022-11-15T01:24:52;7.78;71.57
63202;DHT22;49296;48.188;11.566;2022-11-15T01:27:19;7.78;71.58
63202;DHT22;49296;48.188;11.566;2022-11-15T01:29:45;7.72;71.53
63202;DHT22;49296;48.188;11.566;2022-11-15T01:32:12;7.68;71.47
63202;DHT22;49296;48.188;11.566;2022-11-15T01:34:38;7.68;71.42
63202;DHT22;49296;48.188;11.566;2022-11-15T01:37:06;7.67;71.27
63202;DHT22;49296;48.188;11.566;2022-11-15T01:39:32;7.71;71.21
63202;DHT22;49296;48.188;11.566;2022-11-15T01:41:59;7.71;71.17
63202;DHT22;49296;48.188;11.566;2022-11-15T01:44:31;7.65;71.27
63202;DHT22;49296;48.188;11.566;2022-11-15T01:46:58;7.61;71.29
63202;DHT22;49296;48.188;11.566;2022-11-15T01:49:25;7.67;71.11
63202;DHT22;49296;48.188;11.566;2022-11-15T01:51:53;7.74;70.91
63202;DHT22;49296;48.188;11.566;2022-11-15T01:54:21;7.79;70.80
63202;DHT22;49296;48.188;11.566;2022-11-15T01:56:50;7.60;71.11
63202;DHT22;49296;48.188;11.566;2022-11-15T01:59:17;7.71;70.72
63202;DHT22;49296;48.188;11.566;2022-11-15T02:01:44;7.67;70.72
63202;DHT22;49296;48.188;11.566;2022-11-15T02:04:11;7.74;70.56
63202;DHT22;49296;48.188;11.566;2022-11-15T02:06:39;7.78;70.57
63202;DHT22;49296;48.188;11.566;2022-11-15T02:09:06;7.79;70.52
63202;DHT22;49296;48.188;11.566;2022-11-15T02:11:33;7.82;70.49
63202;DHT22;49296;48.188;11.566;2022-11-15T02:14:00;7.79;70.82
63202;DHT22;49296;48.188;11.566;2022-11-15T02:16:30;7.86;70.87
63202;DHT22;49296;48.188;11.566;2022-11-15T02:19:02;7.81;70.69
63202;DHT22;49296;48.188;11.566;2022-11-15T02:21:32;7.82;70.64
63202;DHT22;49296;48.188;11.566;2022-11-15T02:24:09;7.75;70.53
63202;DHT22;49296;48.188;11.566;2022-11-15T02:26:56;7.81;70.70
63202;DHT22;49296;48.188;11.566;2022-11-15T02:29:27;7.77;70.65
63202;DHT22;49296;48.188;11.566;2022-11-15T02:31:57;7.71;70.84
63202;DHT22;49296;48.188;11.566;2022-11-15T02:34:28;7.74;70.78
63202;DHT22;49296;48.188;11.566;2022-11-15T02:36:59;7.70;71.04
63202;DHT22;49296;48.188;11.566;2022-11-15T02:39:28;7.64;70.77
63202;DHT22;49296;48.188;11.566;2022-11-15T02:41:57;7.54;70.73
63202;DHT22;49296;48.188;11.566;2022-11-15T02:44:27;7.55;70.96
63202;DHT22;49296;48.188;11.566;2022-11-15T02:46:54;7.54;71.29
63202;DHT22;49296;48.188;11.566;2022-11-15T02:49:43;7.55;71.52
63202;DHT22;49296;48.188;11.566;2022-11-15T02:52:14;7.54;71.24
63202;DHT22;49296;48.188;11.566;2022-11-15T02:54:40;7.44;71.16
63202;DHT22;49296;48.188;11.566;2022-11-15T02:57:10;7.44;71.58
63202;DHT22;49296;48.188;11.566;2022-11-15T03:02:29;7.44;71.55
63202;DHT22;49296;48.188;11.566;2022-11-15T03:05:02;7.44;71.79
63202;DHT22;49296;48.188;11.566;2022-11-15T03:07:32;7.38;71.45
63202;DHT22;49296;48.188;11.566;2022-11-15T03:10:02;7.36;71.44
63202;DHT22;49296;48.188;11.566;2022-11-15T03:12:33;7.31;71.45
63202;DHT22;49296;48.188;11.566;2022-11-15T03:15:04;7.26;71.51
63202;DHT22;49296;48.188;11.566;2022-11-15T03:17:33;7.19;71.68
63202;DHT22;49296;48.188;11.566;2022-11-15T03:20:03;7.19;71.66
63202;DHT22;49296;48.188;11.566;2022-11-15T03:22:32;7.13;71.68
63202;DHT22;49296;48.188;11.566;2022-11-15T03:25:00;7.06;71.86
63202;DHT22;49296;48.188;11.566;2022-11-15T03:27:28;7.09;71.73
63202;DHT22;49296;48.188;11.566;2022-11-15T03:29:58;7.03;71.88
63202;DHT22;49296;48.188;11.566;2022-11-15T03:32:26;7.08;71.58
63202;DHT22;49296;48.188;11.566;2022-11-15T03:34:55;7.10;71.38
63202;DHT22;49296;48.188;11.566;2022-11-15T03:37:27;7.10;71.24
63202;DHT22;49296;48.188;11.566;2022-11-15T03:39:56;7.13;71.02
63202;DHT22;49296;48.188;11.566;2022-11-15T03:42:26;7.16;70.81
63202;DHT22;49296;48.188;11.566;2022-11-15T03:44:55;7.15;70.80
63202;DHT22;49296;48.188;11.566;2022-11-15T03:47:25;7.17;70.80
63202;DHT22;49296;48.188;11.566;2022-11-15T03:49:55;7.17;70.63
63202;DHT22;49296;48.188;11.566;2022-11-15T03:52:23;7.22;70.65
63202;DHT22;49296;48.188;11.566;2022-11-15T03:54:52;7.15;71.01
63202;DHT22;49296;48.188;11.566;2022-11-15T03:57:19;7.19;70.36
63202;DHT22;49296;48.188;11.566;2022-11-15T03:59:45;7.26;70.44
63202;DHT22;49296;48.188;11.566;2022-11-15T04:02:12;7.22;70.38
63202;DHT22;49296;48.188;11.566;2022-11-15T04:04:39;7.12;70.50
63202;DHT22;49296;48.188;11.566;2022-11-15T04:07:05;7.05;70.70
63202;DHT22;49296;48.188;11.566;2022-11-15T04:09:32;6.98;70.85
63202;DHT22;49296;48.188;11.566;2022-11-15T04:11:59;6.95;70.87
63202;DHT22;49296;48.188;11.566;2022-11-15T04:14:26;6.99;70.84
63202;DHT22;49296;48.188;11.566;2022-11-15T04:16:52;6.92;70.91
63202;DHT22;49296;48.188;11.566;2022-11-15T04:19:19;6.92;70.97
63202;DHT22;49296;48.188;11.566;2022-11-15T04:22:03;6.91;70.90
63202;DHT22;49296;48.188;11.566;2022-11-15T04:24:47;6.93;70.82
63202;DHT22;49296;48.188;11.566;2022-11-15T04:27:14;6.95;70.90
63202;DHT22;49296;48.188;11.566;2022-11-15T04:29:41;6.96;70.87
63202;DHT22;49296;48.188;11.566;2022-11-15T04:32:07;6.96;70.93
63202;DHT22;49296;48.188;11.566;2022-11-15T04:34:34;7.02;70.97
63202;DHT22;49296;48.188;11.566;2022-11-15T04:37:00;6.98;70.85
63202;DHT22;49296;48.188;11.566;2022-11-15T04:39:41;7.05;70.74
63202;DHT22;49296;48.188;11.566;2022-11-15T04:42:08;7.03;70.63
63202;DHT22;49296;48.188;11.566;2022-11-15T04:44:36;7.08;70.48
63202;DHT22;49296;48.188;11.566;2022-11-15T04:47:02;7.08;70.35
63202;DHT22;49296;48.188;11.566;2022-11-15T04:49:29;7.06;70.15
63202;DHT22;49296;48.188;11.566;2022-11-15T04:51:55;7.05;70.08
63202;DHT22;49296;48.188;11.566;2022-11-15T04:54:22;7.06;70.10
63202;DHT22;49296;48.188;11.566;2022-11-15T04:56:48;7.09;69.75
63202;DHT22;49296;48.188;11.566;2022-11-15T04:59:15;7.10;70.01
63202;DHT22;49296;48.188;11.566;2022-11-15T05:01:43;7.03;70.13
63202;DHT22;49296;48.188;11.566;2022-11-15T05:04:09;7.08;69.97
63202;DHT22;49296;48.188;11.566;2022-11-15T05:06:47;7.10;69.82
63202;DHT22;49296;48.188;11.566;2022-11-15T05:09:14;7.16;69.86
63202;DHT22;49296;48.188;11.566;2022-11-15T05:11:40;7.16;69.89
63202;DHT22;49296;48.188;11.566;2022-11-15T05:14:07;7.15;69.92
63202;DHT22;49296;48.188;11.566;2022-11-15T05:16:33;7.19;69.81
63202;DHT22;49296;48.188;11.566;2022-11-15T05:19:01;7.13;69.70
63202;DHT22;49296;48.188;11.566;2022-11-15T05:21:28;7.09;69.77
63202;DHT22;49296;48.188;11.566;2022-11-15T05:23:55;7.08;70.03
63202;DHT22;49296;48.188;11.566;2022-11-15T05:26:21;6.96;70.21
63202;DHT22;49296;48.188;11.566;2022-11-15T05:28:58;6.95;70.23
63202;DHT22;49296;48.188;11.566;2022-11-15T05:31:25;6.95;70.15
63202;DHT22;49296;48.188;11.566;2022-11-15T05:33:50;6.95;70.14
63202;DHT22;49296;48.188;11.566;2022-11-15T05:36:20;6.99;69.89
63202;DHT22;49296;48.188;11.566;2022-11-15T05:38:47;6.98;69.91
63202;DHT22;49296;48.188;11.566;2022-11-15T05:41:14;7.00;69.96
63202;DHT22;49296;48.188;11.566;2022-11-15T05:43:41;7.03;69.66
63202;DHT22;49296;48.188;11.566;2022-11-15T05:46:09;7.09;69.38
63202;DHT22;49296;48.188;11.566;2022-11-15T05:48:36;7.09;69.51
63202;DHT22;49296;48.188;11.566;2022-11-15T05:51:03;7.13;69.43
63202;DHT22;49296;48.188;11.566;2022-11-15T05:53:32;7.13;69.08
63202;DHT22;49296;48.188;11.566;2022-11-15T05:55:59;7.16;68.88
63202;DHT22;49296;48.188;11.566;2022-11-15T05:58:25;7.10;69.29
63202;DHT22;49296;48.188;11.566;2022-11-15T06:00:54;7.13;68.68
63202;DHT22;49296;48.188;11.566;2022-11-15T06:03:21;7.10;68.96
63202;DHT22;49296;48.188;11.566;2022-11-15T06:05:47;7.12;69.06
63202;DHT22;49296;48.188;11.566;2022-11-15T06:08:13;7.03;69.12
63202;DHT22;49296;48.188;11.566;2022-11-15T06:10:41;7.00;69.13
63202;DHT22;49296;48.188;11.566;2022-11-15T06:13:08;7.03;69.59
63202;DHT22;49296;48.188;11.566;2022-11-15T06:15:34;7.05;69.72
63202;DHT22;49296;48.188;11.566;2022-11-15T06:18:01;7.09;69.38
63202;DHT22;49296;48.188;11.566;2022-11-15T06:20:28;7.12;69.72
63202;DHT22;49296;48.188;11.566;2022-11-15T06:22:58;7.10;69.43
63202;DHT22;49296;48.188;11.566;2022-11-15T06:25:25;7.09;69.40
63202;DHT22;49296;48.188;11.566;2022-11-15T06:27:53;7.03;69.16
63202;DHT22;49296;48.188;11.566;2022-11-15T06:30:19;7.03;69.29
63202;DHT22;49296;48.188;11.566;2022-11-15T06:32:46;7.03;69.25
63202;DHT22;49296;48.188;11.566;2022-11-15T06:35:12;6.99;69.20
63202;DHT22;49296;48.188;11.566;2022-11-15T06:37:39;7.03;68.93
63202;DHT22;49296;48.188;11.566;2022-11-15T06:40:06;7.06;68.98
63202;DHT22;49296;48.188;11.566;2022-11-15T06:42:32;7.05;69.26
63202;DHT22;49296;48.188;11.566;2022-11-15T06:45:00;7.06;69.25
63202;DHT22;49296;48.188;11.566;2022-11-15T06:47:27;7.09;69.28
63202;DHT22;49296;48.188;11.566;2022-11-15T06:49:53;7.10;70.18
63202;DHT22;49296;48.188;11.566;2022-11-15T06:52:20;7.17;70.36
63202;DHT22;49296;48.188;11.566;2022-11-15T06:54:46;7.20;69.34
63202;DHT22;49296;48.188;11.566;2022-11-15T06:57:13;7.24;68.89
63202;DHT22;49296;48.188;11.566;2022-11-15T06:59:39;7.24;68.55
63202;DHT22;49296;48.188;11.566;2022-11-15T07:02:10;7.26;68.42
63202;DHT22;49296;48.188;11.566;2022-11-15T07:04:37;7.31;68.56
63202;DHT22;49296;48.188;11.566;2022-11-15T07:07:04;7.28;68.62
63202;DHT22;49296;48.188;11.566;2022-11-15T07:09:30;7.31;68.55
63202;DHT22;49296;48.188;11.566;2022-11-15T07:11:57;7.30;68.59
63202;DHT22;49296;48.188;11.566;2022-11-15T07:14:23;7.28;68.60
63202;DHT22;49296;48.188;11.566;2022-11-15T07:16:50;7.27;68.48
63202;DHT22;49296;48.188;11.566;2022-11-15T07:19:17;7.27;68.59
63202;DHT22;49296;48.188;11.566;2022-11-15T07:21:44;7.36;68.48
63202;DHT22;49296;48.188;11.566;2022-11-15T07:24:10;7.40;68.52
63202;DHT22;49296;48.188;11.566;2022-11-15T07:26:37;7.31;68.19
63202;DHT22;49296;48.188;11.566;2022-11-15T07:29:03;7.28;68.32
63202;DHT22;49296;48.188;11.566;2022-11-15T07:31:30;7.38;68.13
63202;DHT22;49296;48.188;11.566;2022-11-15T07:33:56;7.47;68.08
63202;DHT22;49296;48.188;11.566;2022-11-15T07:36:24;7.47;68.06
63202;DHT22;49296;48.188;11.566;2022-11-15T07:38:51;7.53;68.13
63202;DHT22;49296;48.188;11.566;2022-11-15T07:41:17;7.37;68.45
63202;DHT22;49296;48.188;11.566;2022-11-15T07:43:44;7.46;68.73
63202;DHT22;49296;48.188;11.566;2022-11-15T07:46:10;7.51;68.36
63202;DHT22;49296;48.188;11.566;2022-11-15T07:48:37;7.61;68.36
63202;DHT22;49296;48.188;11.566;2022-11-15T07:51:05;7.74;67.44
63202;DHT22;49296;48.188;11.566;2022-11-15T07:53:33;7.79;67.80
63202;DHT22;49296;48.188;11.566;2022-11-15T07:55:59;7.88;67.75
63202;DHT22;49296;48.188;11.566;2022-11-15T07:58:26;7.88;67.71
63202;DHT22;49296;48.188;11.566;2022-11-15T08:00:52;8.02;67.61
63202;DHT22;49296;48.188;11.566;2022-11-15T08:03:19;8.00;67.59
63202;DHT22;49296;48.188;11.566;2022-11-15T08:05:49;8.06;67.47
63202;DHT22;49296;48.188;11.566;2022-11-15T08:08:16;8.07;67.09
63202;DHT22;49296;48.188;11.566;2022-11-15T08:10:44;8.13;67.06
63202;DHT22;49296;48.188;11.566;2022-11-15T08:13:11;8.22;66.96
63202;DHT22;49296;48.188;11.566;2022-11-15T08:15:38;8.23;67.14
63202;DHT22;49296;48.188;11.566;2022-11-15T08:18:05;8.24;67.15
63202;DHT22;49296;48.188;11.566;2022-11-15T08:20:32;8.31;66.81
63202;DHT22;49296;48.188;11.566;2022-11-15T08:22:59;8.31;67.11
63202;DHT22;49296;48.188;11.566;2022-11-15T08:25:27;8.42;66.97
63202;DHT22;49296;48.188;11.566;2022-11-15T08:27:55;8.45;66.72
63202;DHT22;49296;48.188;11.566;2022-11-15T08:30:22;8.51;66.62
63202;DHT22;49296;48.188;11.566;2022-11-15T08:32:49;8.62;66.58
63202;DHT22;49296;48.188;11.566;2022-11-15T08:35:16;8.67;66.35
63202;DHT22;49296;48.188;11.566;2022-11-15T08:37:43;8.71;66.19
63202;DHT22;49296;48.188;11.566;2022-11-15T08:40:09;8.69;66.42
63202;DHT22;49296;48.188;11.566;2022-11-15T08:42:36;8.72;65.76
63202;DHT22;49296;48.188;11.566;2022-11-15T08:45:05;8.71;65.80
63202;DHT22;49296;48.188;11.566;2022-11-15T08:47:32;8.78;65.47
63202;DHT22;49296;48.188;11.566;2022-11-15T08:49:58;8.83;64.92
63202;DHT22;49296;48.188;11.566;2022-11-15T08:52:25;8.87;64.70
63202;DHT22;49296;48.188;11.566;2022-11-15T08:54:55;8.96;64.79
63202;DHT22;49296;48.188;11.566;2022-11-15T08:57:24;8.89;65.24
63202;DHT22;49296;48.188;11.566;2022-11-15T08:59:51;8.90;65.49
63202;DHT22;49296;48.188;11.566;2022-11-15T09:02:19;8.87;65.31
63202;DHT22;49296;48.188;11.566;2022-11-15T09:04:45;8.73;65.40
63202;DHT22;49296;48.188;11.566;2022-11-15T09:07:13;8.79;64.90
63202;DHT22;49296;48.188;11.566;2022-11-15T09:09:40;9.00;64.55
63202;DHT22;49296;48.188;11.566;2022-11-15T09:12:06;9.11;64.52
63202;DHT22;49296;48.188;11.566;2022-11-15T09:14:33;9.17;64.26
63202;DHT22;49296;48.188;11.566;2022-11-15T09:17:02;9.11;64.15
63202;DHT22;49296;48.188;11.566;2022-11-15T09:19:30;9.17;63.86
63202;DHT22;49296;48.188;11.566;2022-11-15T09:21:58;9.19;63.91
63202;DHT22;49296;48.188;11.566;2022-11-15T09:24:25;9.31;63.87
63202;DHT22;49296;48.188;11.566;2022-11-15T09:26:51;9.37;63.63
63202;DHT22;49296;48.188;11.566;2022-11-15T09:29:18;9.41;64.02
63202;DHT22;49296;48.188;11.566;2022-11-15T09:31:44;9.44;64.44
63202;DHT22;49296;48.188;11.566;2022-11-15T09:34:11;9.48;64.54
63202;DHT22;49296;48.188;11.566;2022-11-15T09:36:39;9.49;65.47
63202;DHT22;49296;48.188;11.566;2022-11-15T09:39:05;9.54;64.26
63202;DHT22;49296;48.188;11.566;2022-11-15T09:41:48;9.55;63.97
63202;DHT22;49296;48.188;11.566;2022-11-15T09:44:29;9.52;64.22
63202;DHT22;49296;48.188;11.566;2022-11-15T09:47:03;9.59;64.35
63202;DHT22;49296;48.188;11.566;2022-11-15T09:49:37;9.66;64.83
63202;DHT22;49296;48.188;11.566;2022-11-15T09:52:06;9.72;64.29
63202;DHT22;49296;48.188;11.566;2022-11-15T09:54:34;9.66;63.86
63202;DHT22;49296;48.188;11.566;2022-11-15T09:57:03;9.69;63.62
63202;DHT22;49296;48.188;11.566;2022-11-15T09:59:40;9.78;63.33
63202;DHT22;49296;48.188;11.566;2022-11-15T10:02:13;9.86;63.52
63202;DHT22;49296;48.188;11.566;2022-11-15T10:04:42;9.89;63.75
63202;DHT22;49296;48.188;11.566;2022-11-15T10:07:13;9.94;63.71
63202;DHT22;49296;48.188;11.566;2022-11-15T10:09:42;10.00;63.33
63202;DHT22;49296;48.188;11.566;2022-11-15T10:12:10;9.99;63.22
63202;DHT22;49296;48.188;11.566;2022-11-15T10:14:39;9.93;63.71
63202;DHT22;49296;48.188;11.566;2022-11-15T10:19:56;10.10;63.42
63202;DHT22;49296;48.188;11.566;2022-11-15T10:22:26;10.18;63.23
63202;DHT22;49296;48.188;11.566;2022-11-15T10:24:58;10.22;63.19
63202;DHT22;49296;48.188;11.566;2022-11-15T10:27:26;10.28;63.20
63202;DHT22;49296;48.188;11.566;2022-11-15T10:29:53;10.30;62.93
63202;DHT22;49296;48.188;11.566;2022-11-15T10:32:20;10.33;62.99
63202;DHT22;49296;48.188;11.566;2022-11-15T10:34:47;10.33;62.57
63202;DHT22;49296;48.188;11.566;2022-11-15T10:37:14;10.34;62.51
63202;DHT22;49296;48.188;11.566;2022-11-15T10:39:42;10.40;62.26
63202;DHT22;49296;48.188;11.566;2022-11-15T10:42:15;10.45;62.16
63202;DHT22;49296;48.188;11.566;2022-11-15T10:44:42;10.53;61.74
63202;DHT22;49296;48.188;11.566;2022-11-15T10:47:23;10.52;61.42
63202;DHT22;49296;48.188;11.566;2022-11-15T10:49:59;10.63;61.35
63202;DHT22;49296;48.188;11.566;2022-11-15T10:52:25;10.69;61.42
63202;DHT22;49296;48.188;11.566;2022-11-15T10:54:55;10.77;61.10
63202;DHT22;49296;48.188;11.566;2022-11-15T10:57:22;10.83;60.42
63202;DHT22;49296;48.188;11.566;2022-11-15T10:59:50;10.86;60.41
63202;DHT22;49296;48.188;11.566;2022-11-15T11:02:28;10.90;60.11
63202;DHT22;49296;48.188;11.566;2022-11-15T11:04:55;10.96;59.83
63202;DHT22;49296;48.188;11.566;2022-11-15T11:07:23;10.99;59.92
63202;DHT22;49296;48.188;11.566;2022-11-15T11:10:00;11.04;59.97
63202;DHT22;49296;48.188;11.566;2022-11-15T11:12:27;11.13;59.91
63202;DHT22;49296;48.188;11.566;2022-11-15T11:14:55;11.20;59.61
63202;DHT22;49296;48.188;11.566;2022-11-15T11:17:34;11.24;59.68
63202;DHT22;49296;48.188;11.566;2022-11-15T11:20:02;11.28;60.04
63202;DHT22;49296;48.188;11.566;2022-11-15T11:22:34;11.39;59.70
63202;DHT22;49296;48.188;11.566;2022-11-15T11:25:09;11.43;59.24
63202;DHT22;49296;48.188;11.566;2022-11-15T11:27:40;11.54;59.14
63202;DHT22;49296;48.188;11.566;2022-11-15T11:30:09;11.51;59.44
63202;DHT22;49296;48.188;11.566;2022-11-15T11:32:42;11.55;60.17
63202;DHT22;49296;48.188;11.566;2022-11-15T11:35:13;11.61;60.82
63202;DHT22;49296;48.188;11.566;2022-11-15T11:37:43;11.69;59.98
63202;DHT22;49296;48.188;11.566;2022-11-15T11:40:16;11.79;58.15
63202;DHT22;49296;48.188;11.566;2022-11-15T11:42:46;11.86;58.13
63202;DHT22;49296;48.188;11.566;2022-11-15T11:45:20;11.94;58.57
63202;DHT22;49296;48.188;11.566;2022-11-15T11:47:51;11.98;58.00
63202;DHT22;49296;48.188;11.566;2022-11-15T11:50:18;12.03;57.33
63202;DHT22;49296;48.188;11.566;2022-11-15T11:52:48;12.08;57.29
63202;DHT22;49296;48.188;11.566;2022-11-15T11:55:20;12.16;57.09
63202;DHT22;49296;48.188;11.566;2022-11-15T11:57:49;12.21;57.73
63202;DHT22;49296;48.188;11.566;2022-11-15T12:00:18;12.31;59.52
63202;DHT22;49296;48.188;11.566;2022-11-15T12:02:46;12.29;58.39
63202;DHT22;49296;48.188;11.566;2022-11-15T12:05:16;12.38;58.24
63202;DHT22;49296;48.188;11.566;2022-11-15T12:07:44;12.52;58.59
63202;DHT22;49296;48.188;11.566;2022-11-15T12:10:15;12.63;58.53
63202;DHT22;49296;48.188;11.566;2022-11-15T12:12:44;12.63;59.53
63202;DHT22;49296;48.188;11.566;2022-11-15T12:15:14;12.73;59.39
63202;DHT22;49296;48.188;11.566;2022-11-15T12:17:41;12.82;59.53
63202;DHT22;49296;48.188;11.566;2022-11-15T12:20:14;12.86;60.12
63202;DHT22;49296;48.188;11.566;2022-11-15T12:22:42;12.90;59.68
63202;DHT22;49296;48.188;11.566;2022-11-15T12:25:14;13.04;59.13
63202;DHT22;49296;48.188;11.566;2022-11-15T12:27:42;13.07;59.12
63202;DHT22;49296;48.188;11.566;2022-11-15T12:30:12;13.12;59.63
63202;DHT22;49296;48.188;11.566;2022-11-15T12:32:39;13.17;59.35
63202;DHT22;49296;48.188;11.566;2022-11-15T12:35:20;13.17;59.19
63202;DHT22;49296;48.188;11.566;2022-11-15T12:37:48;13.21;60.32
63202;DHT22;49296;48.188;11.566;2022-11-15T12:40:20;13.32;59.12
63202;DHT22;49296;48.188;11.566;2022-11-15T12:42:57;13.38;59.27
63202;DHT22;49296;48.188;11.566;2022-11-15T12:45:27;13.42;60.41
63202;DHT22;49296;48.188;11.566;2022-11-15T12:47:55;13.48;60.52
63202;DHT22;49296;48.188;11.566;2022-11-15T12:58:40;13.86;58.50
63202;DHT22;49296;48.188;11.566;2022-11-15T13:01:08;14.00;58.20
63202;DHT22;49296;48.188;11.566;2022-11-15T13:03:35;13.98;58.40
63202;DHT22;49296;48.188;11.566;2022-11-15T13:06:36;14.11;57.82
63202;DHT22;49296;48.188;11.566;2022-11-15T13:09:49;14.20;57.96
63202;DHT22;49296;48.188;11.566;2022-11-15T13:11:52;14.14;57.51
63202;DHT22;49296;48.188;11.566;2022-11-15T13:17:12;14.32;57.47
63202;DHT22;49296;48.188;11.566;2022-11-15T13:19:42;14.31;57.55
63202;DHT22;49296;48.188;11.566;2022-11-15T13:22:09;14.40;57.57
63202;DHT22;49296;48.188;11.566;2022-11-15T13:24:53;14.40;58.13
63202;DHT22;49296;48.188;11.566;2022-11-15T13:27:20;14.40;58.29
63202;DHT22;49296;48.188;11.566;2022-11-15T13:29:49;14.57;58.11
63202;DHT22;49296;48.188;11.566;2022-11-15T13:32:17;14.59;58.08
63202;DHT22;49296;48.188;11.566;2022-11-15T13:34:44;14.52;58.20
63202;DHT22;49296;48.188;11.566;2022-11-15T13:37:12;14.60;57.67
63202;DHT22;49296;48.188;11.566;2022-11-15T13:39:53;14.66;57.34
63202;DHT22;49296;48.188;11.566;2022-11-15T13:42:20;14.52;58.02
63202;DHT22;49296;48.188;11.566;2022-11-15T13:44:54;14.35;58.31
63202;DHT22;49296;48.188;11.566;2022-11-15T13:47:24;14.43;58.57
63202;DHT22;49296;48.188;11.566;2022-11-15T13:49:51;14.21;58.57
63202;DHT22;49296;48.188;11.566;2022-11-15T13:52:18;14.18;58.90
63202;DHT22;49296;48.188;11.566;2022-11-15T13:54:45;14.20;58.02
63202;DHT22;49296;48.188;11.566;2022-11-15T13:57:14;14.00;58.78
63202;DHT22;49296;48.188;11.566;2022-11-15T13:59:46;13.90;60.06
63202;DHT22;49296;48.188;11.566;2022-11-15T14:02:14;13.87;60.54
63202;DHT22;49296;48.188;11.566;2022-11-15T14:04:46;13.87;60.82
63202;DHT22;49296;48.188;11.566;2022-11-15T14:07:15;13.83;60.90
63202;DHT22;49296;48.188;11.566;2022-11-15T14:09:42;13.81;61.29
63202;DHT22;49296;48.188;11.566;2022-11-15T14:15:01;13.97;60.48
63202;DHT22;49296;48.188;11.566;2022-11-15T14:17:36;14.05;60.35
63202;DHT22;49296;48.188;11.566;2022-11-15T14:20:18;13.97;60.54
63202;DHT22;49296;48.188;11.566;2022-11-15T14:22:50;13.81;61.04
63202;DHT22;49296;48.188;11.566;2022-11-15T14:25:18;13.81;61.54
63202;DHT22;49296;48.188;11.566;2022-11-15T14:28:07;13.87;61.44
63202;DHT22;49296;48.188;11.566;2022-11-15T14:30:31;13.91;61.33
63202;DHT22;49296;48.188;11.566;2022-11-15T14:32:58;13.88;61.11
63202;DHT22;49296;48.188;11.566;2022-11-15T14:35:26;13.86;61.24
63202;DHT22;49296;48.188;11.566;2022-11-15T14:37:52;13.81;61.50
63202;DHT22;49296;48.188;11.566;2022-11-15T14:40:21;13.66;61.89
63202;DHT22;49296;48.188;11.566;2022-11-15T14:42:49;13.63;62.28
63202;DHT22;49296;48.188;11.566;2022-11-15T14:45:16;13.49;62.40
63202;DHT22;49296;48.188;11.566;2022-11-15T14:47:43;13.25;63.11
63202;DHT22;49296;48.188;11.566;2022-11-15T14:50:13;13.43;62.79
63202;DHT22;49296;48.188;11.566;2022-11-15T14:52:41;13.45;62.81
63202;DHT22;49296;48.188;11.566;2022-11-15T14:55:11;13.29;63.39
63202;DHT22;49296;48.188;11.566;2022-11-15T14:57:40;13.34;63.45
63202;DHT22;49296;48.188;11.566;2022-11-15T15:00:07;13.36;63.45
63202;DHT22;49296;48.188;11.566;2022-11-15T15:02:35;13.41;63.47
63202;DHT22;49296;48.188;11.566;2022-11-15T15:05:08;13.34;63.59
63202;DHT22;49296;48.188;11.566;2022-11-15T15:07:38;13.31;63.92
63202;DHT22;49296;48.188;11.566;2022-11-15T15:10:06;13.29;63.95
63202;DHT22;49296;48.188;11.566;2022-11-15T15:12:33;13.26;64.02
63202;DHT22;49296;48.188;11.566;2022-11-15T15:14:59;13.21;64.14
63202;DHT22;49296;48.188;11.566;2022-11-15T15:17:26;13.17;64.35
63202;DHT22;49296;48.188;11.566;2022-11-15T15:19:55;13.14;64.55
63202;DHT22;49296;48.188;11.566;2022-11-15T15:22:29;12.93;65.16
63202;DHT22;49296;48.188;11.566;2022-11-15T15:24:56;12.89;65.53
63202;DHT22;49296;48.188;11.566;2022-11-15T15:27:24;12.83;65.71
63202;DHT22;49296;48.188;11.566;2022-11-15T15:29:51;12.69;66.22
63202;DHT22;49296;48.188;11.566;2022-11-15T15:32:17;12.73;66.17
63202;DHT22;49296;48.188;11.566;2022-11-15T15:34:44;12.76;66.20
63202;DHT22;49296;48.188;11.566;2022-11-15T15:37:21;12.76;66.20
63202;DHT22;49296;48.188;11.566;2022-11-15T15:39:48;12.69;66.36
63202;DHT22;49296;48.188;11.566;2022-11-15T15:42:15;12.31;67.26
63202;DHT22;49296;48.188;11.566;2022-11-15T15:44:43;12.08;67.79
63202;DHT22;49296;48.188;11.566;2022-11-15T15:47:11;11.83;68.61
63202;DHT22;49296;48.188;11.566;2022-11-15T15:49:38;11.90;68.75
63202;DHT22;49296;48.188;11.566;2022-11-15T15:52:04;11.61;69.36
63202;DHT22;49296;48.188;11.566;2022-11-15T15:54:31;11.51;69.50